createdAt,value
2018-01-21T00:00:43.053Z,0.00
2018-01-21T00:01:43.031Z,0.00
2018-01-21T00:02:43.053Z,0.00
2018-01-21T00:03:42.985Z,0.00
2018-01-21T00:04:42.960Z,0.00
2018-01-21T00:05:42.942Z,0.00
2018-01-21T00:06:42.922Z,0.00
2018-01-21T00:07:42.900Z,0.00
2018-01-21T00:08:42.868Z,0.00
2018-01-21T00:09:42.850Z,0.00
2018-01-21T00:10:42.828Z,0.00
2018-01-21T00:11:42.801Z,0.00
2018-01-21T00:12:42.779Z,0.00
2018-01-21T00:13:42.777Z,0.00
2018-01-21T00:14:42.737Z,0.00
2018-01-21T00:15:42.719Z,0.00
2018-01-21T00:16:42.700Z,0.00
2018-01-21T00:17:42.681Z,0.00
2018-01-21T00:18:42.653Z,0.00
2018-01-21T00:19:42.633Z,0.00
2018-01-21T00:20:42.609Z,0.00
2018-01-21T00:21:42.599Z,0.00
2018-01-21T00:22:42.566Z,0.00
2018-01-21T00:23:42.547Z,0.00
2018-01-21T00:24:42.520Z,0.00
2018-01-21T00:25:42.505Z,0.00
2018-01-21T00:26:42.480Z,0.00
2018-01-21T00:27:42.454Z,0.00
2018-01-21T00:28:42.433Z,0.00
2018-01-21T00:29:42.411Z,0.00
2018-01-21T00:30:42.387Z,0.00
2018-01-21T00:31:42.370Z,0.00
2018-01-21T00:32:42.344Z,0.00
2018-01-21T00:33:42.331Z,0.00
2018-01-21T00:34:42.303Z,0.00
2018-01-21T00:35:42.279Z,0.00
2018-01-21T00:36:42.264Z,0.00
2018-01-21T00:37:42.238Z,0.00
2018-01-21T00:38:42.219Z,0.00
2018-01-21T00:39:42.199Z,0.00
2018-01-21T00:40:42.169Z,0.00
2018-01-21T00:41:42.160Z,0.00
2018-01-21T00:42:42.127Z,0.00
2018-01-21T00:43:42.109Z,0.00
2018-01-21T00:44:42.086Z,0.00
2018-01-21T00:45:42.068Z,0.00
2018-01-21T00:46:42.051Z,0.00
2018-01-21T00:47:42.036Z,0.00
2018-01-21T00:48:41.999Z,0.00
2018-01-21T00:49:41.981Z,0.00
2018-01-21T00:50:41.964Z,0.00
2018-01-21T00:51:41.940Z,0.00
2018-01-21T00:52:41.914Z,0.00
2018-01-21T00:53:41.890Z,0.00
2018-01-21T00:54:41.869Z,0.00
2018-01-21T00:55:41.859Z,0.00
2018-01-21T00:56:41.833Z,0.00
2018-01-21T00:57:41.806Z,0.00
2018-01-21T00:58:41.788Z,0.00
2018-01-21T00:59:41.772Z,0.00
2018-01-21T01:00:41.791Z,0.00
2018-01-21T01:01:41.720Z,0.00
2018-01-21T01:02:41.791Z,0.00
2018-01-21T01:03:41.672Z,0.00
2018-01-21T01:04:41.659Z,0.00
2018-01-21T01:05:41.633Z,0.00
2018-01-21T01:06:41.619Z,0.00
2018-01-21T01:07:41.592Z,0.00
2018-01-21T01:08:41.583Z,0.00
2018-01-21T01:09:41.560Z,0.00
2018-01-21T01:10:41.526Z,0.00
2018-01-21T01:11:41.500Z,0.00
2018-01-21T01:12:41.479Z,0.00
2018-01-21T01:13:41.459Z,0.00
2018-01-21T01:14:41.440Z,0.00
2018-01-21T01:15:41.414Z,0.00
2018-01-21T01:16:41.401Z,0.00
2018-01-21T01:17:41.390Z,0.00
2018-01-21T01:18:41.350Z,0.00
2018-01-21T01:19:41.330Z,0.00
2018-01-21T01:20:41.310Z,0.00
2018-01-21T01:21:41.290Z,0.00
2018-01-21T01:22:41.264Z,0.00
2018-01-21T01:23:41.252Z,0.00
2018-01-21T01:24:41.220Z,0.00
2018-01-21T01:25:41.198Z,0.00
2018-01-21T01:26:41.176Z,0.00
2018-01-21T01:27:41.156Z,0.00
2018-01-21T01:28:41.138Z,0.00
2018-01-21T01:29:41.116Z,0.00
2018-01-21T01:30:41.089Z,0.00
2018-01-21T01:31:41.070Z,0.00
2018-01-21T01:32:41.051Z,0.00
2018-01-21T01:33:41.029Z,0.00
2018-01-21T01:34:41.001Z,0.00
2018-01-21T01:35:40.985Z,0.00
2018-01-21T01:36:40.970Z,0.00
2018-01-21T01:37:40.940Z,0.00
2018-01-21T01:38:40.919Z,0.00
2018-01-21T01:39:40.901Z,0.00
2018-01-21T01:40:40.880Z,0.00
2018-01-21T01:41:40.855Z,0.00
2018-01-21T01:42:40.841Z,0.00
2018-01-21T01:43:40.811Z,0.00
2018-01-21T01:44:40.789Z,0.00
2018-01-21T01:45:40.772Z,0.00
2018-01-21T01:46:40.749Z,0.00
2018-01-21T01:47:40.728Z,0.00
2018-01-21T01:48:40.705Z,0.00
2018-01-21T01:49:40.690Z,0.00
2018-01-21T01:50:40.661Z,0.00
2018-01-21T01:51:40.639Z,0.00
2018-01-21T01:52:40.621Z,0.00
2018-01-21T01:53:40.600Z,0.00
2018-01-21T01:54:40.576Z,0.00
2018-01-21T01:55:40.550Z,0.00
2018-01-21T01:56:40.528Z,0.00
2018-01-21T01:57:40.507Z,0.00
2018-01-21T01:58:40.488Z,0.00
2018-01-21T01:59:40.462Z,0.00
2018-01-21T02:00:40.452Z,0.00
2018-01-21T02:01:40.418Z,0.00
2018-01-21T02:02:40.399Z,0.00
2018-01-21T02:03:40.380Z,0.00
2018-01-21T02:04:40.360Z,0.00
2018-01-21T02:05:40.342Z,0.00
2018-01-21T02:06:40.320Z,0.00
2018-01-21T02:07:40.290Z,0.00
2018-01-21T02:08:40.270Z,0.00
2018-01-21T02:09:40.252Z,0.00
2018-01-21T02:10:40.230Z,0.00
2018-01-21T02:11:40.204Z,0.00
2018-01-21T02:12:40.184Z,0.00
2018-01-21T02:13:40.168Z,0.00
2018-01-21T02:14:40.140Z,0.00
2018-01-21T02:15:40.119Z,0.00
2018-01-21T02:16:40.095Z,0.00
2018-01-21T02:17:40.078Z,0.00
2018-01-21T02:18:40.051Z,0.00
2018-01-21T02:19:40.030Z,0.00
2018-01-21T02:20:40.010Z,0.00
2018-01-21T02:21:39.989Z,0.00
2018-01-21T02:22:39.963Z,0.00
2018-01-21T02:23:39.949Z,0.00
2018-01-21T02:24:39.923Z,0.00
2018-01-21T02:25:39.899Z,0.00
2018-01-21T02:26:39.877Z,0.00
2018-01-21T02:27:39.857Z,0.00
2018-01-21T02:28:39.841Z,0.00
2018-01-21T02:29:39.815Z,0.00
2018-01-21T02:30:39.800Z,0.00
2018-01-21T02:31:39.773Z,0.00
2018-01-21T02:32:39.749Z,0.00
2018-01-21T02:33:39.725Z,0.00
2018-01-21T02:34:39.703Z,0.00
2018-01-21T02:35:39.684Z,0.00
2018-01-21T02:36:39.662Z,0.00
2018-01-21T02:37:39.639Z,0.00
2018-01-21T02:38:39.620Z,0.00
2018-01-21T02:39:39.600Z,0.00
2018-01-21T02:40:39.582Z,0.00
2018-01-21T02:41:39.555Z,0.00
2018-01-21T02:42:39.530Z,0.00
2018-01-21T02:43:39.511Z,0.00
2018-01-21T02:44:39.487Z,0.00
2018-01-21T02:45:39.465Z,0.00
2018-01-21T02:46:39.450Z,0.00
2018-01-21T02:47:39.430Z,0.00
2018-01-21T02:48:39.401Z,0.00
2018-01-21T02:49:39.378Z,0.00
2018-01-21T02:50:39.359Z,0.00
2018-01-21T02:51:39.332Z,0.00
2018-01-21T02:52:39.318Z,0.00
2018-01-21T02:53:39.293Z,0.00
2018-01-21T02:54:39.268Z,0.00
2018-01-21T02:55:39.266Z,0.00
2018-01-21T02:56:39.226Z,0.00
2018-01-21T02:57:39.206Z,0.00
2018-01-21T02:58:39.180Z,0.00
2018-01-21T02:59:39.158Z,0.00
2018-01-21T03:00:39.138Z,0.00
2018-01-21T03:01:39.117Z,0.00
2018-01-21T03:02:39.099Z,0.00
2018-01-21T03:03:39.069Z,0.00
2018-01-21T03:04:39.048Z,0.00
2018-01-21T03:05:39.029Z,0.00
2018-01-21T03:06:39.005Z,0.00
2018-01-21T03:07:38.983Z,0.00
2018-01-21T03:08:38.962Z,0.00
2018-01-21T03:09:38.938Z,0.00
2018-01-21T03:10:38.918Z,0.00
2018-01-21T03:11:38.896Z,0.00
2018-01-21T03:12:38.878Z,0.00
2018-01-21T03:13:38.851Z,0.00
2018-01-21T03:14:38.829Z,0.00
2018-01-21T03:15:38.810Z,0.00
2018-01-21T03:16:38.789Z,0.00
2018-01-21T03:17:38.768Z,0.00
2018-01-21T03:18:38.742Z,0.00
2018-01-21T03:19:38.722Z,0.00
2018-01-21T03:20:38.697Z,0.00
2018-01-21T03:21:38.676Z,0.00
2018-01-21T03:22:38.653Z,0.00
2018-01-21T03:23:38.635Z,0.00
2018-01-21T03:24:38.628Z,0.00
2018-01-21T03:25:38.638Z,0.00
2018-01-21T03:26:38.569Z,0.00
2018-01-21T03:27:38.569Z,0.00
2018-01-21T03:28:38.525Z,0.00
2018-01-21T03:29:38.510Z,0.00
2018-01-21T03:30:38.480Z,0.00
2018-01-21T03:31:38.561Z,0.00
2018-01-21T03:32:38.438Z,0.00
2018-01-21T03:33:38.516Z,0.00
2018-01-21T03:34:38.399Z,0.00
2018-01-21T03:35:38.470Z,0.00
2018-01-21T03:36:38.349Z,0.00
2018-01-21T03:37:38.430Z,0.00
2018-01-21T03:38:38.306Z,0.00
2018-01-21T03:39:38.286Z,0.00
2018-01-21T03:40:38.262Z,0.00
2018-01-21T03:41:38.442Z,0.00
2018-01-21T03:42:38.220Z,0.00
2018-01-21T03:43:38.246Z,0.00
2018-01-21T03:44:38.173Z,0.00
2018-01-21T03:45:38.156Z,0.00
2018-01-21T03:46:38.131Z,0.00
2018-01-21T03:47:38.107Z,0.00
2018-01-21T03:48:38.100Z,0.00
2018-01-21T03:49:38.067Z,0.00
2018-01-21T03:50:38.039Z,0.00
2018-01-21T03:51:38.023Z,0.00
2018-01-21T03:52:37.999Z,0.00
2018-01-21T03:53:37.980Z,0.00
2018-01-21T03:54:37.959Z,0.00
2018-01-21T03:55:37.939Z,0.00
2018-01-21T03:56:37.910Z,0.00
2018-01-21T03:57:37.887Z,0.00
2018-01-21T03:58:37.870Z,0.00
2018-01-21T03:59:37.846Z,0.00
2018-01-21T04:00:37.820Z,0.00
2018-01-21T04:01:37.808Z,0.00
2018-01-21T04:02:37.775Z,0.00
2018-01-21T04:03:37.826Z,0.00
2018-01-21T04:04:37.729Z,0.00
2018-01-21T04:05:37.707Z,0.00
2018-01-21T04:06:37.687Z,0.00
2018-01-21T04:07:37.689Z,0.00
2018-01-21T04:08:37.639Z,0.00
2018-01-21T04:09:37.623Z,0.00
2018-01-21T04:10:37.599Z,0.00
2018-01-21T04:11:37.582Z,0.00
2018-01-21T04:12:37.556Z,0.00
2018-01-21T04:13:37.527Z,0.00
2018-01-21T04:14:37.510Z,0.00
2018-01-21T04:15:37.492Z,0.00
2018-01-21T04:16:37.467Z,0.00
2018-01-21T04:17:37.439Z,0.00
2018-01-21T04:18:37.424Z,0.00
2018-01-21T04:19:37.399Z,0.00
2018-01-21T04:20:37.380Z,0.00
2018-01-21T04:21:37.349Z,0.00
2018-01-21T04:22:37.327Z,0.00
2018-01-21T04:23:37.309Z,0.00
2018-01-21T04:24:37.283Z,0.00
2018-01-21T04:25:37.261Z,0.00
2018-01-21T04:26:37.239Z,0.00
2018-01-21T04:27:37.219Z,0.00
2018-01-21T04:28:37.207Z,0.00
2018-01-21T04:29:37.173Z,0.00
2018-01-21T04:30:37.149Z,0.00
2018-01-21T04:31:37.132Z,0.00
2018-01-21T04:32:37.108Z,0.00
2018-01-21T04:33:37.082Z,0.00
2018-01-21T04:34:37.071Z,0.00
2018-01-21T04:35:37.040Z,0.00
2018-01-21T04:36:37.019Z,0.00
2018-01-21T04:37:36.992Z,0.00
2018-01-21T04:38:36.975Z,0.00
2018-01-21T04:39:36.951Z,0.00
2018-01-21T04:40:36.930Z,0.00
2018-01-21T04:41:36.902Z,0.00
2018-01-21T04:42:36.878Z,0.00
2018-01-21T04:43:36.859Z,0.00
2018-01-21T04:44:36.834Z,0.00
2018-01-21T04:45:36.815Z,0.00
2018-01-21T04:46:36.789Z,0.00
2018-01-21T04:47:36.769Z,0.00
2018-01-21T04:48:36.749Z,0.00
2018-01-21T04:49:36.729Z,0.00
2018-01-21T04:50:36.699Z,0.00
2018-01-21T04:51:36.676Z,0.00
2018-01-21T04:52:36.657Z,0.00
2018-01-21T04:53:36.637Z,0.00
2018-01-21T04:54:36.616Z,0.00
2018-01-21T04:55:36.588Z,0.00
2018-01-21T04:56:36.569Z,0.00
2018-01-21T04:57:36.549Z,0.00
2018-01-21T04:58:36.520Z,0.00
2018-01-21T04:59:36.499Z,0.00
2018-01-21T05:00:36.483Z,0.00
2018-01-21T05:01:36.451Z,0.00
2018-01-21T05:02:36.429Z,0.00
2018-01-21T05:03:36.406Z,0.00
2018-01-21T05:04:36.385Z,0.00
2018-01-21T05:05:36.363Z,0.00
2018-01-21T05:06:36.342Z,0.00
2018-01-21T05:07:36.319Z,0.00
2018-01-21T05:08:36.297Z,0.00
2018-01-21T05:09:36.272Z,0.00
2018-01-21T05:10:36.249Z,0.00
2018-01-21T05:11:36.230Z,0.00
2018-01-21T05:12:36.210Z,0.00
2018-01-21T05:13:36.188Z,0.00
2018-01-21T05:14:36.157Z,0.00
2018-01-21T05:15:36.137Z,0.00
2018-01-21T05:16:36.116Z,0.00
2018-01-21T05:17:36.099Z,0.00
2018-01-21T05:18:36.070Z,0.00
2018-01-21T05:19:36.051Z,0.00
2018-01-21T05:20:36.032Z,0.00
2018-01-21T05:21:35.998Z,0.00
2018-01-21T05:22:35.980Z,0.00
2018-01-21T05:23:35.961Z,0.00
2018-01-21T05:24:35.941Z,0.00
2018-01-21T05:25:35.919Z,0.00
2018-01-21T05:26:35.886Z,0.00
2018-01-21T05:27:35.874Z,0.00
2018-01-21T05:28:35.846Z,0.00
2018-01-21T05:29:35.820Z,0.00
2018-01-21T05:30:35.804Z,0.00
2018-01-21T05:31:35.781Z,0.00
2018-01-21T05:33:35.734Z,0.00
2018-01-21T05:34:35.705Z,0.00
2018-01-21T05:35:35.688Z,0.00
2018-01-21T05:36:35.663Z,0.00
2018-01-21T05:37:35.639Z,0.00
2018-01-21T05:38:35.620Z,0.00
2018-01-21T05:39:35.599Z,0.00
2018-01-21T05:40:35.571Z,0.00
2018-01-21T05:41:35.550Z,0.00
2018-01-21T05:42:35.526Z,0.00
2018-01-21T05:43:35.508Z,0.00
2018-01-21T05:44:35.489Z,0.00
2018-01-21T05:45:35.460Z,0.00
2018-01-21T05:46:35.439Z,0.00
2018-01-21T05:47:35.414Z,0.00
2018-01-21T05:48:35.400Z,0.00
2018-01-21T05:49:35.371Z,0.00
2018-01-21T05:50:35.349Z,0.00
2018-01-21T05:51:35.331Z,0.00
2018-01-21T05:52:35.309Z,0.00
2018-01-21T05:53:35.279Z,0.00
2018-01-21T05:54:35.361Z,0.00
2018-01-21T05:55:35.240Z,0.00
2018-01-21T05:56:35.308Z,0.00
2018-01-21T05:57:35.189Z,0.00
2018-01-21T05:58:35.216Z,0.00
2018-01-21T05:59:35.143Z,0.00
2018-01-21T06:00:35.165Z,0.00
2018-01-21T06:01:35.097Z,0.00
2018-01-21T06:02:35.080Z,0.00
2018-01-21T06:03:35.055Z,0.00
2018-01-21T06:04:35.085Z,0.00
2018-01-21T06:05:35.007Z,0.00
2018-01-21T06:06:35.081Z,0.00
2018-01-21T06:07:34.961Z,0.00
2018-01-21T06:08:34.938Z,0.00
2018-01-21T06:09:34.919Z,0.00
2018-01-21T06:10:34.899Z,0.00
2018-01-21T06:11:34.869Z,0.00
2018-01-21T06:12:34.848Z,0.00
2018-01-21T06:13:34.825Z,0.00
2018-01-21T06:14:34.810Z,0.00
2018-01-21T06:15:34.780Z,0.00
2018-01-21T06:16:34.759Z,0.00
2018-01-21T06:17:34.738Z,0.00
2018-01-21T06:18:34.713Z,0.00
2018-01-21T06:19:34.690Z,0.00
2018-01-21T06:20:34.669Z,0.00
2018-01-21T06:21:34.650Z,0.00
2018-01-21T06:22:34.639Z,0.00
2018-01-21T06:23:34.598Z,0.00
2018-01-21T06:24:34.579Z,0.00
2018-01-21T06:25:34.559Z,0.00
2018-01-21T06:26:34.636Z,0.00
2018-01-21T06:27:34.510Z,0.00
2018-01-21T06:28:34.496Z,0.00
2018-01-21T06:29:34.464Z,0.00
2018-01-21T06:30:34.440Z,0.00
2018-01-21T06:31:34.419Z,0.00
2018-01-21T06:32:34.402Z,0.00
2018-01-21T06:33:34.380Z,0.00
2018-01-21T06:34:34.349Z,0.00
2018-01-21T06:35:34.329Z,0.00
2018-01-21T06:36:34.308Z,0.00
2018-01-21T06:37:34.281Z,0.00
2018-01-21T06:38:34.256Z,0.00
2018-01-21T06:39:34.240Z,0.00
2018-01-21T06:40:34.212Z,0.00
2018-01-21T06:41:34.188Z,0.00
2018-01-21T06:42:34.171Z,0.00
2018-01-21T06:43:34.144Z,0.00
2018-01-21T06:44:34.124Z,4.00
2018-01-21T06:45:34.102Z,4.00
2018-01-21T06:46:34.078Z,0.00
2018-01-21T06:47:34.054Z,4.00
2018-01-21T06:48:34.030Z,4.00
2018-01-21T06:49:34.008Z,4.00
2018-01-21T06:50:33.986Z,4.00
2018-01-21T06:51:33.960Z,4.00
2018-01-21T06:52:33.939Z,8.00
2018-01-21T06:53:33.919Z,8.00
2018-01-21T06:54:33.896Z,4.00
2018-01-21T06:55:33.872Z,8.00
2018-01-21T06:56:33.850Z,4.00
2018-01-21T06:57:33.827Z,4.00
2018-01-21T06:58:33.813Z,4.00
2018-01-21T06:59:33.786Z,4.00
2018-01-21T07:00:33.759Z,8.00
2018-01-21T07:01:33.738Z,8.00
2018-01-21T07:02:33.715Z,12.00
2018-01-21T07:03:33.693Z,16.00
2018-01-21T07:04:33.673Z,20.00
2018-01-21T07:05:33.652Z,20.00
2018-01-21T07:06:33.628Z,24.00
2018-01-21T07:07:33.604Z,32.00
2018-01-21T07:08:33.580Z,32.00
2018-01-21T07:09:33.558Z,36.00
2018-01-21T07:10:33.547Z,44.00
2018-01-21T07:11:33.518Z,48.00
2018-01-21T07:12:33.491Z,60.00
2018-01-21T07:13:33.467Z,68.00
2018-01-21T07:14:33.443Z,80.00
2018-01-21T07:15:33.420Z,92.00
2018-01-21T07:16:33.401Z,108.00
2018-01-21T07:17:33.376Z,124.00
2018-01-21T07:18:33.379Z,136.00
2018-01-21T07:19:33.331Z,148.00
2018-01-21T07:20:33.307Z,156.00
2018-01-21T07:21:33.290Z,160.00
2018-01-21T07:22:33.262Z,164.00
2018-01-21T07:23:33.241Z,176.00
2018-01-21T07:24:33.218Z,196.00
2018-01-21T07:25:33.199Z,216.00
2018-01-21T07:26:33.177Z,244.00
2018-01-21T07:27:33.149Z,264.00
2018-01-21T07:28:33.131Z,292.00
2018-01-21T07:29:33.119Z,316.00
2018-01-21T07:30:33.090Z,348.00
2018-01-21T07:31:33.061Z,384.00
2018-01-21T07:32:33.040Z,408.00
2018-01-21T07:33:33.020Z,428.00
2018-01-21T07:34:32.998Z,456.00
2018-01-21T07:35:32.971Z,488.00
2018-01-21T07:36:32.951Z,504.00
2018-01-21T07:37:32.929Z,504.00
2018-01-21T07:38:32.901Z,496.00
2018-01-21T07:39:32.878Z,496.00
2018-01-21T07:40:32.862Z,516.00
2018-01-21T07:41:32.836Z,560.00
2018-01-21T07:42:32.819Z,612.00
2018-01-21T07:43:32.791Z,628.00
2018-01-21T07:44:32.770Z,580.00
2018-01-21T07:45:32.749Z,552.00
2018-01-21T07:46:32.725Z,564.00
2018-01-21T07:47:32.701Z,636.00
2018-01-21T07:48:32.679Z,704.00
2018-01-21T07:49:32.659Z,732.00
2018-01-21T07:50:32.641Z,756.00
2018-01-21T07:51:32.615Z,768.00
2018-01-21T07:52:32.589Z,832.00
2018-01-21T07:53:32.569Z,876.00
2018-01-21T07:54:32.550Z,848.00
2018-01-21T07:55:32.528Z,828.00
2018-01-21T07:56:32.503Z,796.00
2018-01-21T07:57:32.480Z,872.00
2018-01-21T07:58:32.465Z,868.00
2018-01-21T07:59:32.436Z,752.00
2018-01-21T08:00:32.420Z,696.00
2018-01-21T08:01:32.400Z,736.00
2018-01-21T08:02:32.368Z,760.00
2018-01-21T08:03:32.346Z,768.00
2018-01-21T08:04:32.332Z,760.00
2018-01-21T08:05:32.305Z,764.00
2018-01-21T08:06:32.278Z,872.00
2018-01-21T08:07:32.259Z,1120.00
2018-01-21T08:08:32.236Z,1384.00
2018-01-21T08:09:32.240Z,1608.00
2018-01-21T08:10:32.203Z,1692.00
2018-01-21T08:11:32.170Z,1684.00
2018-01-21T08:12:32.146Z,1672.00
2018-01-21T08:13:32.131Z,1472.00
2018-01-21T08:14:32.120Z,1328.00
2018-01-21T08:15:32.091Z,1200.00
2018-01-21T08:16:32.059Z,880.00
2018-01-21T08:17:32.042Z,776.00
2018-01-21T08:18:32.030Z,884.00
2018-01-21T08:19:32.050Z,1100.00
2018-01-21T08:20:31.970Z,1204.00
2018-01-21T08:21:32.000Z,1116.00
2018-01-21T08:22:31.928Z,1020.00
2018-01-21T08:23:31.910Z,964.00
2018-01-21T08:24:31.887Z,848.00
2018-01-21T08:25:32.020Z,804.00
2018-01-21T08:26:31.840Z,712.00
2018-01-21T08:27:31.820Z,592.00
2018-01-21T08:28:31.800Z,536.00
2018-01-21T08:29:31.830Z,580.00
2018-01-21T08:30:31.760Z,668.00
2018-01-21T08:31:31.830Z,672.00
2018-01-21T08:32:31.709Z,716.00
2018-01-21T08:33:31.688Z,748.00
2018-01-21T08:34:31.672Z,856.00
2018-01-21T08:35:31.709Z,860.00
2018-01-21T08:36:31.621Z,1052.00
2018-01-21T08:37:31.627Z,1100.00
2018-01-21T08:38:31.582Z,1004.00
2018-01-21T08:39:31.557Z,936.00
2018-01-21T08:40:31.599Z,880.00
2018-01-21T08:41:31.521Z,820.00
2018-01-21T08:42:31.489Z,800.00
2018-01-21T08:43:31.469Z,756.00
2018-01-21T08:44:31.457Z,692.00
2018-01-21T08:45:31.430Z,632.00
2018-01-21T08:46:31.401Z,576.00
2018-01-21T08:47:31.489Z,592.00
2018-01-21T08:48:31.360Z,560.00
2018-01-21T08:49:31.407Z,596.00
2018-01-21T08:50:31.313Z,692.00
2018-01-21T08:51:31.323Z,612.00
2018-01-21T08:52:31.272Z,632.00
2018-01-21T08:53:31.379Z,704.00
2018-01-21T08:54:31.237Z,804.00
2018-01-21T08:55:31.222Z,840.00
2018-01-21T08:56:31.181Z,884.00
2018-01-21T08:57:31.174Z,988.00
2018-01-21T08:58:31.136Z,1196.00
2018-01-21T08:59:31.119Z,1320.00
2018-01-21T09:00:31.094Z,1360.00
2018-01-21T09:01:31.072Z,1336.00
2018-01-21T09:02:31.049Z,1308.00
2018-01-21T09:03:31.033Z,1340.00
2018-01-21T09:04:31.012Z,1088.00
2018-01-21T09:05:30.988Z,984.00
2018-01-21T09:06:30.973Z,932.00
2018-01-21T09:07:30.941Z,1012.00
2018-01-21T09:08:30.916Z,1144.00
2018-01-21T09:09:30.900Z,1096.00
2018-01-21T09:10:30.877Z,988.00
2018-01-21T09:11:30.852Z,1024.00
2018-01-21T09:12:30.834Z,1064.00
2018-01-21T09:13:30.810Z,1188.00
2018-01-21T09:14:30.789Z,1224.00
2018-01-21T09:15:30.764Z,1200.00
2018-01-21T09:16:30.738Z,1156.00
2018-01-21T09:17:30.717Z,1104.00
2018-01-21T09:18:30.701Z,1144.00
2018-01-21T09:19:30.682Z,1336.00
2018-01-21T09:20:30.665Z,1316.00
2018-01-21T09:21:30.631Z,1360.00
2018-01-21T09:22:30.612Z,1256.00
2018-01-21T09:23:30.593Z,1320.00
2018-01-21T09:24:30.563Z,1280.00
2018-01-21T09:25:30.545Z,1212.00
2018-01-21T09:26:30.520Z,1172.00
2018-01-21T09:27:30.502Z,1308.00
2018-01-21T09:28:30.478Z,1180.00
2018-01-21T09:29:30.455Z,1008.00
2018-01-21T09:30:30.441Z,924.00
2018-01-21T09:31:30.431Z,904.00
2018-01-21T09:32:30.390Z,900.00
2018-01-21T09:33:30.367Z,996.00
2018-01-21T09:34:30.349Z,996.00
2018-01-21T09:35:30.330Z,1040.00
2018-01-21T09:36:30.315Z,1044.00
2018-01-21T09:37:30.280Z,896.00
2018-01-21T09:38:30.256Z,1076.00
2018-01-21T09:39:30.243Z,1104.00
2018-01-21T09:40:30.215Z,1080.00
2018-01-21T09:41:30.198Z,1412.00
2018-01-21T09:42:30.169Z,2168.00
2018-01-21T09:43:30.150Z,2980.00
2018-01-21T09:44:30.129Z,4384.00
2018-01-21T09:45:30.115Z,5440.00
2018-01-21T09:46:30.088Z,6000.00
2018-01-21T09:47:30.074Z,6984.00
2018-01-21T09:48:30.046Z,6936.00
2018-01-21T09:49:30.023Z,5936.00
2018-01-21T09:50:30.006Z,6552.00
2018-01-21T09:51:29.993Z,5212.00
2018-01-21T09:52:29.960Z,3148.00
2018-01-21T09:53:29.944Z,1972.00
2018-01-21T09:54:29.932Z,2252.00
2018-01-21T09:55:29.893Z,1828.00
2018-01-21T09:56:29.883Z,1636.00
2018-01-21T09:57:29.857Z,1568.00
2018-01-21T09:58:29.831Z,1436.00
2018-01-21T09:59:29.812Z,1260.00
2018-01-21T10:00:29.878Z,1248.00
2018-01-21T10:01:29.771Z,1672.00
2018-01-21T10:02:29.751Z,2312.00
2018-01-21T10:03:29.725Z,3220.00
2018-01-21T10:04:29.717Z,4388.00
2018-01-21T10:05:29.683Z,4240.00
2018-01-21T10:06:29.670Z,3788.00
2018-01-21T10:07:29.645Z,4044.00
2018-01-21T10:08:29.631Z,4760.00
2018-01-21T10:09:29.615Z,5004.00
2018-01-21T10:10:29.586Z,7092.00
2018-01-21T10:11:29.560Z,18528.00
2018-01-21T10:12:29.538Z,10052.00
2018-01-21T10:13:29.522Z,11660.00
2018-01-21T10:14:29.505Z,12776.00
2018-01-21T10:15:29.480Z,7292.00
2018-01-21T10:16:29.465Z,14400.00
2018-01-21T10:17:29.442Z,11308.00
2018-01-21T10:18:29.422Z,7956.00
2018-01-21T10:19:29.406Z,7604.00
2018-01-21T10:20:29.392Z,8280.00
2018-01-21T10:21:29.367Z,7324.00
2018-01-21T10:22:29.353Z,5764.00
2018-01-21T10:23:29.340Z,4888.00
2018-01-21T10:24:29.316Z,4532.00
2018-01-21T10:25:29.297Z,4496.00
2018-01-21T10:26:29.281Z,4516.00
2018-01-21T10:27:29.266Z,4824.00
2018-01-21T10:28:29.250Z,4988.00
2018-01-21T10:29:29.230Z,4116.00
2018-01-21T10:30:29.209Z,3680.00
2018-01-21T10:31:29.191Z,2856.00
2018-01-21T10:32:29.180Z,2016.00
2018-01-21T10:33:29.159Z,1472.00
2018-01-21T10:34:29.141Z,1112.00
2018-01-21T10:35:29.115Z,948.00
2018-01-21T10:36:29.094Z,992.00
2018-01-21T10:37:29.089Z,1032.00
2018-01-21T10:38:29.059Z,1164.00
2018-01-21T10:39:29.042Z,1332.00
2018-01-21T10:40:29.022Z,1460.00
2018-01-21T10:41:29.008Z,1848.00
2018-01-21T10:42:28.984Z,2744.00
2018-01-21T10:43:29.004Z,3832.00
2018-01-21T10:44:28.951Z,3928.00
2018-01-21T10:45:28.924Z,4140.00
2018-01-21T10:46:28.903Z,3876.00
2018-01-21T10:47:28.883Z,3912.00
2018-01-21T10:48:28.861Z,3868.00
2018-01-21T10:49:28.855Z,3668.00
2018-01-21T10:50:28.823Z,3436.00
2018-01-21T10:51:28.809Z,3496.00
2018-01-21T10:52:28.784Z,3172.00
2018-01-21T10:53:28.768Z,2964.00
2018-01-21T10:54:28.762Z,3464.00
2018-01-21T10:55:28.740Z,3896.00
2018-01-21T10:56:28.708Z,3124.00
2018-01-21T10:57:28.689Z,2384.00
2018-01-21T10:58:28.672Z,1936.00
2018-01-21T10:59:28.668Z,1836.00
2018-01-21T11:00:28.627Z,1748.00
2018-01-21T11:01:28.612Z,1832.00
2018-01-21T11:02:28.586Z,1832.00
2018-01-21T11:03:28.569Z,1756.00
2018-01-21T11:04:28.548Z,1732.00
2018-01-21T11:05:28.531Z,1744.00
2018-01-21T11:06:28.515Z,1568.00
2018-01-21T11:07:28.482Z,1412.00
2018-01-21T11:08:28.472Z,1320.00
2018-01-21T11:09:28.446Z,1260.00
2018-01-21T11:10:28.429Z,1244.00
2018-01-21T11:11:28.403Z,1276.00
2018-01-21T11:12:28.386Z,1336.00
2018-01-21T11:13:28.367Z,1376.00
2018-01-21T11:14:28.353Z,1452.00
2018-01-21T11:15:28.334Z,1408.00
2018-01-21T11:16:28.312Z,1412.00
2018-01-21T11:17:28.285Z,1436.00
2018-01-21T11:18:28.265Z,1300.00
2018-01-21T11:19:28.247Z,1240.00
2018-01-21T11:20:28.233Z,1224.00
2018-01-21T11:21:28.206Z,1320.00
2018-01-21T11:22:28.187Z,1404.00
2018-01-21T11:23:28.164Z,1508.00
2018-01-21T11:24:28.152Z,1552.00
2018-01-21T11:25:28.132Z,1580.00
2018-01-21T11:26:28.110Z,1708.00
2018-01-21T11:27:28.080Z,1876.00
2018-01-21T11:28:28.062Z,2072.00
2018-01-21T11:29:28.040Z,2472.00
2018-01-21T11:30:28.031Z,2684.00
2018-01-21T11:31:28.001Z,2448.00
2018-01-21T11:32:27.979Z,2224.00
2018-01-21T11:33:27.958Z,1976.00
2018-01-21T11:34:27.942Z,1688.00
2018-01-21T11:35:27.919Z,1536.00
2018-01-21T11:36:27.925Z,1560.00
2018-01-21T11:37:27.878Z,1664.00
2018-01-21T11:38:27.861Z,1656.00
2018-01-21T11:39:27.841Z,1772.00
2018-01-21T11:40:27.816Z,1520.00
2018-01-21T11:41:27.800Z,1528.00
2018-01-21T11:42:27.788Z,1532.00
2018-01-21T11:43:27.757Z,1468.00
2018-01-21T11:44:27.731Z,1376.00
2018-01-21T11:45:27.713Z,1284.00
2018-01-21T11:46:27.703Z,1264.00
2018-01-21T11:47:27.677Z,1280.00
2018-01-21T11:48:27.672Z,1252.00
2018-01-21T11:49:27.636Z,1160.00
2018-01-21T11:50:27.620Z,1076.00
2018-01-21T11:51:27.591Z,1048.00
2018-01-21T11:52:27.572Z,1060.00
2018-01-21T11:53:27.553Z,1068.00
2018-01-21T11:54:27.541Z,1056.00
2018-01-21T11:55:27.512Z,1044.00
2018-01-21T11:56:27.503Z,1064.00
2018-01-21T11:57:27.466Z,1032.00
2018-01-21T11:58:27.445Z,984.00
2018-01-21T11:59:27.442Z,968.00
2018-01-21T12:00:27.411Z,952.00
2018-01-21T12:01:27.391Z,904.00
2018-01-21T12:02:27.375Z,780.00
2018-01-21T12:03:27.346Z,728.00
2018-01-21T12:04:27.330Z,708.00
2018-01-21T12:05:27.305Z,728.00
2018-01-21T12:06:27.279Z,792.00
2018-01-21T12:07:27.261Z,948.00
2018-01-21T12:08:27.241Z,1112.00
2018-01-21T12:09:27.220Z,1272.00
2018-01-21T12:10:27.200Z,1496.00
2018-01-21T12:11:27.185Z,1584.00
2018-01-21T12:12:27.157Z,1512.00
2018-01-21T12:13:27.139Z,1376.00
2018-01-21T12:14:27.121Z,1240.00
2018-01-21T12:15:27.095Z,1132.00
2018-01-21T12:16:27.076Z,1052.00
2018-01-21T12:17:27.060Z,996.00
2018-01-21T12:18:27.087Z,1016.00
2018-01-21T12:19:27.019Z,1068.00
2018-01-21T12:20:27.010Z,1180.00
2018-01-21T12:21:26.980Z,1360.00
2018-01-21T12:22:26.951Z,1496.00
2018-01-21T12:23:26.937Z,1660.00
2018-01-21T12:24:26.909Z,1732.00
2018-01-21T12:25:26.898Z,1676.00
2018-01-21T12:26:26.871Z,1604.00
2018-01-21T12:27:26.851Z,1516.00
2018-01-21T12:28:26.829Z,1472.00
2018-01-21T12:29:26.821Z,1456.00
2018-01-21T12:30:26.788Z,1468.00
2018-01-21T12:31:26.797Z,1480.00
2018-01-21T12:32:26.807Z,1544.00
2018-01-21T12:33:26.733Z,1584.00
2018-01-21T12:34:26.705Z,1580.00
2018-01-21T12:35:26.685Z,1512.00
2018-01-21T12:36:26.721Z,1444.00
2018-01-21T12:37:26.659Z,1428.00
2018-01-21T12:38:26.626Z,1428.00
2018-01-21T12:39:26.616Z,1408.00
2018-01-21T12:40:26.599Z,1360.00
2018-01-21T12:41:26.570Z,1300.00
2018-01-21T12:42:26.590Z,1204.00
2018-01-21T12:43:26.528Z,1164.00
2018-01-21T12:44:26.512Z,1096.00
2018-01-21T12:45:26.493Z,1084.00
2018-01-21T12:46:26.462Z,1068.00
2018-01-21T12:47:26.441Z,1052.00
2018-01-21T12:48:26.421Z,1076.00
2018-01-21T12:49:26.401Z,1064.00